Terminal Aerodrome Forecast
Issued by NWS

Home | Current Version | Previous Version | Text Only | Print | Product List | Glossary Off
Versions: 1 2 3 4 5 6 7 8 9 10 11 12 13 14 15 16

822
FTUS43 KMPX 080306 AAA
TAFRNH
TAF AMD
KRNH 080306Z 0803/0824 28015G20KT P6SM -SN OVC025
     FM080600 28015G20KT 6SM -SN BR OVC025
      TEMPO 0809/0813 4SM -SN
     FM081500 32018G24KT P6SM -SN OVC025=

USA.gov is the U.S. government's official web portal to all federal, state and local government web resources and services.